TimeEST,TemperatureF,Dew PointF,Humidity,Sea Level PressureIn,VisibilityMPH,Wind Direction,Wind SpeedMPH,Gust SpeedMPH,PrecipitationIn,Events,Conditions,WindDirDegrees,DateUTC
12:25 AM,-3.3,-7.1,84,30.40,-9999.0,Calm,Calm,-,0.02,,Unknown,0,2013-02-23 05:25:00
1:25 AM,-2.6,-6.0,85,30.40,-9999.0,Calm,Calm,-,0.01,,Unknown,0,2013-02-23 06:25:00
2:25 AM,-0.6,-3.8,86,30.40,-9999.0,Calm,Calm,-,0.01,,Unknown,0,2013-02-23 07:25:00
3:25 AM,2.1,-0.8,88,30.38,-9999.0,Calm,Calm,-,0.01,,Unknown,0,2013-02-23 08:25:00
4:25 AM,2.8,0.1,88,30.36,-9999.0,Calm,Calm,-,0.01,,Unknown,0,2013-02-23 09:25:00
5:25 AM,1.2,-1.8,87,30.36,-9999.0,Calm,Calm,-,0.00,,Unknown,0,2013-02-23 10:25:00
6:25 AM,4.3,1.4,88,30.38,-9999.0,Calm,Calm,-,N/A,,Unknown,0,2013-02-23 11:25:00
7:25 AM,6.1,3.6,89,30.37,-9999.0,Variable,2.3,-,N/A,,Unknown,0,2013-02-23 12:25:00
8:25 AM,12.0,10.2,92,30.36,-9999.0,Calm,Calm,-,N/A,,Unknown,0,2013-02-23 13:25:00
9:25 AM,-9999,-9999,N/A,30.34,-9999.0,Variable,3.5,-,0.03,,Unknown,0,2013-02-23 14:25:00
10:25 AM,23.0,19.9,88,30.31,-9999.0,Variable,3.5,11.5,0.01,,Unknown,0,2013-02-23 15:25:00
11:26 AM,25.0,20.1,82,30.28,-9999.0,Variable,4.6,-,0.03,,Unknown,0,2013-02-23 16:26:00
12:28 PM,27.7,21.4,77,30.24,-9999.0,Variable,5.8,-,0.01,,Unknown,0,2013-02-23 17:28:00
1:25 PM,27.3,21.7,80,30.22,-9999.0,Variable,5.8,-,N/A,,Unknown,0,2013-02-23 18:25:00
2:25 PM,27.5,23.0,83,30.19,-9999.0,Variable,4.6,15.0,N/A,,Unknown,0,2013-02-23 19:25:00
3:25 PM,27.5,23.9,86,30.17,-9999.0,Variable,4.6,-,N/A,,Unknown,0,2013-02-23 20:25:00
4:25 PM,27.0,23.5,87,30.16,-9999.0,Variable,5.8,-,N/A,,Unknown,0,2013-02-23 21:25:00
5:25 PM,-9999,-9999,N/A,30.13,-9999.0,Variable,5.8,-,0.01,,Unknown,0,2013-02-23 22:25:00
6:25 PM,-9999,-9999,N/A,30.13,-9999.0,Variable,3.5,-,0.01,,Unknown,0,2013-02-23 23:25:00
7:25 PM,-9999,-9999,N/A,30.11,-9999.0,Variable,3.5,-,0.01,,Unknown,0,2013-02-24 00:25:00
8:25 PM,-9999,-9999,N/A,30.09,-9999.0,Variable,4.6,-,0.01,,Unknown,0,2013-02-24 01:25:00
9:25 PM,-9999,-9999,N/A,30.08,-9999.0,Variable,3.5,-,0.00,,Unknown,0,2013-02-24 02:25:00
10:25 PM,-9999,-9999,N/A,30.06,-9999.0,Variable,3.5,-,N/A,,Unknown,0,2013-02-24 03:25:00
11:25 PM,-9999,-9999,N/A,30.04,-9999.0,Calm,Calm,-,0.00,,Unknown,0,2013-02-24 04:25:00